PTAO2: Poteau River, Poteau, OK

                                SHEF ID:       PTAO2     Poteau River at Poteau, OK
STATION TYPE:
Regulating: Stage = 20.00, Flow = 7395

PRECIP STAGE RIV-FLOW VOLTAGE BAT-LOAD
in ft cfs volt volt
Ccp-Rev Ccp-Rev Ccp-Rev Ccp-Rev Ccp-Rev
(America/Chicago)
06/08 00:00 0.00 14.87 4644 12.88 12.40
06/08 01:00 0.00 14.51 4472 12.86 12.40
06/08 02:00 0.00 14.14 4340 12.85 12.37
06/08 03:00 0.00 13.78 4211 12.83 12.36
06/08 04:00 0.00 13.41 4080 12.82 12.34
06/08 05:00 0.00 13.04 3948 12.79 12.32
06/08 06:00 0.00 12.69 3824 12.79 12.31
06/08 07:00 0.00 12.34 3700 13.03 12.40
06/08 08:00 0.00 12.01 3583 13.99 13.08
06/08 09:00 0.00 11.67 3463 13.75 13.02
06/08 10:00 0.00 11.33 3343 13.19 12.76
06/08 11:00 0.00 11.01 3228 13.11 12.63
06/08 12:00 0.00 10.68 3107 13.07 12.60
06/08 13:00 0.00 10.35 2985 13.11 12.61
06/08 14:00 0.00 10.01 2861 13.07 12.60
06/08 15:00 0.00 9.68 2741 13.03 12.54
06/08 16:00 0.00 9.36 2625 12.96 12.48
06/08 17:00 0.00 9.04 2509 12.95 12.46
06/08 18:00 0.00 8.72 2394 12.93 12.44
06/08 19:00 0.00 8.42 2287 13.06 12.49
06/08 20:00 0.00 8.10 2173 13.08 12.61
06/08 21:00 0.00 7.79 2063 12.92 12.46
06/08 22:00 0.00 7.46 1947 12.86 12.40
06/08 23:00 0.00 7.14 1835 12.84 12.35
Data processed at Mon 09Jun2025 04:48 GMT

Parsing this webpage?

Checkout our new Data API! CWMSDataAPI (CDA)

Timeseries IDs (TSIDs)

TSIDs used from left to right in the data table
POTE.Precip-Inc.Total.1Hour.1Hour.Ccp-Rev
POTE.Stage.Inst.1Hour.0.Ccp-Rev
POTE.Flow.Inst.1Hour.0.Ccp-Rev
POTE.Volt-Battery.Inst.1Hour.0.Ccp-Rev
POTE.Volt-Battery Load.Inst.1Hour.0.Ccp-Rev

                            

All information presented herein is the property of the government of the United States of America and may be revised or deleted at any time without prior notice. Dissemination of this information without the expressed written consent of the Public Affairs Office, Tulsa District U.S. Army Corps of Engineers is strictly prohibited. These data are gathered electronically and, as presented, have NOT undergone any form of quality control. These data are NOT guaranteed to be valid or correct.